createdAt,value
2019-05-07T00:01:56.317Z,60.52
2019-05-07T00:04:25.400Z,59.92
2019-05-07T00:06:57.788Z,60.90
2019-05-07T00:09:26.906Z,61.29
2019-05-07T00:11:55.966Z,61.86
2019-05-07T00:14:24.998Z,61.80
2019-05-07T00:16:54.096Z,59.80
2019-05-07T00:19:24.996Z,59.42
2019-05-07T00:21:54.199Z,59.20
2019-05-07T00:24:23.273Z,58.60
2019-05-07T00:26:53.247Z,56.46
2019-05-07T00:29:22.597Z,57.79
2019-05-07T00:31:53.617Z,58.35
2019-05-07T00:34:29.862Z,58.09
2019-05-07T00:37:13.105Z,55.80
2019-05-07T00:40:16.931Z,56.58
2019-05-07T00:43:05.179Z,55.80
2019-05-07T00:45:46.146Z,55.35
2019-05-07T00:48:19.655Z,55.05
2019-05-07T00:50:52.693Z,57.24
2019-05-07T00:53:24.466Z,59.04
2019-05-07T00:55:56.220Z,59.47
2019-05-07T00:58:27.484Z,58.07
2019-05-07T01:00:58.154Z,59.12
2019-05-07T01:03:27.435Z,59.96
2019-05-07T01:05:56.544Z,59.64
2019-05-07T01:08:25.626Z,58.53
2019-05-07T01:10:57.756Z,59.29
2019-05-07T01:13:32.325Z,60.33
2019-05-07T01:16:05.981Z,59.54
2019-05-07T01:18:36.107Z,59.60
2019-05-07T01:21:07.782Z,60.02
2019-05-07T01:23:36.860Z,59.28
2019-05-07T01:26:07.303Z,59.85
2019-05-07T01:28:54.510Z,59.71
2019-05-07T01:31:24.928Z,59.68
2019-05-07T01:34:02.566Z,60.28
2019-05-07T01:36:34.321Z,59.98
2019-05-07T01:39:03.753Z,60.56
2019-05-07T01:41:32.863Z,60.25
2019-05-07T01:44:06.340Z,59.32
2019-05-07T01:46:35.380Z,58.28
2019-05-07T01:49:04.479Z,59.34
2019-05-07T01:51:34.638Z,59.85
2019-05-07T01:54:04.908Z,60.70
2019-05-07T01:56:42.613Z,60.88
2019-05-07T01:59:13.625Z,61.51
2019-05-07T02:01:43.158Z,61.75
2019-05-07T02:04:29.939Z,60.95
2019-05-07T02:07:17.078Z,60.97
2019-05-07T02:09:55.203Z,61.23
2019-05-07T02:12:31.930Z,61.82
2019-05-07T02:15:02.703Z,62.05
2019-05-07T02:17:32.305Z,61.68
2019-05-07T02:20:05.625Z,61.12
2019-05-07T02:22:37.189Z,61.13
2019-05-07T02:25:09.989Z,61.08
2019-05-07T02:27:42.293Z,61.19
2019-05-07T02:30:14.715Z,60.59
2019-05-07T02:32:43.328Z,61.28
2019-05-07T02:35:13.658Z,60.98
2019-05-07T02:37:56.195Z,60.73
2019-05-07T02:40:48.719Z,60.31
2019-05-07T02:43:17.768Z,61.34
2019-05-07T02:46:20.645Z,60.97
2019-05-07T02:48:49.006Z,62.34
2019-05-07T02:51:26.635Z,61.82
2019-05-07T02:54:08.189Z,62.37
2019-05-07T02:56:37.227Z,62.08
2019-05-07T02:59:06.484Z,62.87
2019-05-07T03:01:37.309Z,62.56
2019-05-07T03:04:07.542Z,63.01
2019-05-07T03:06:43.984Z,62.54
2019-05-07T03:09:14.488Z,62.52
2019-05-07T03:11:43.801Z,61.96
2019-05-07T03:14:16.297Z,62.62
2019-05-07T03:16:49.637Z,62.64
2019-05-07T03:19:19.970Z,62.97
2019-05-07T03:21:56.159Z,62.72
2019-05-07T03:24:56.696Z,62.91
2019-05-07T03:27:44.676Z,61.91
2019-05-07T03:30:45.028Z,62.81
2019-05-07T03:33:29.122Z,64.62
2019-05-07T03:35:58.973Z,65.33
2019-05-07T03:38:28.042Z,65.38
2019-05-07T03:40:57.109Z,65.23
2019-05-07T03:43:27.234Z,64.68
2019-05-07T03:46:17.000Z,63.96
2019-05-07T03:48:53.149Z,64.40
2019-05-07T03:51:23.722Z,64.84
2019-05-07T03:53:54.763Z,64.82
2019-05-07T03:56:27.774Z,63.83
2019-05-07T03:58:56.815Z,64.61
2019-05-07T04:01:25.888Z,65.51
2019-05-07T04:03:56.148Z,66.56
2019-05-07T04:06:29.646Z,65.97
2019-05-07T04:08:58.771Z,66.20
2019-05-07T04:11:27.852Z,66.66
2019-05-07T04:13:57.736Z,66.94
2019-05-07T04:16:27.275Z,67.97
2019-05-07T04:18:58.053Z,68.15
2019-05-07T04:21:27.136Z,68.13
2019-05-07T04:24:13.730Z,67.68
2019-05-07T04:26:45.981Z,68.62
2019-05-07T04:29:22.886Z,68.04
2019-05-07T04:31:53.243Z,68.75
2019-05-07T04:34:39.884Z,68.33
2019-05-07T04:37:08.933Z,66.32
2019-05-07T04:39:42.868Z,67.32
2019-05-07T04:42:13.386Z,67.34
2019-05-07T04:44:43.690Z,66.26
2019-05-07T04:47:13.399Z,65.38
2019-05-07T04:49:43.888Z,64.31
2019-05-07T04:52:19.048Z,63.60
2019-05-07T04:54:48.501Z,64.14
2019-05-07T04:57:26.977Z,64.27
2019-05-07T04:59:58.962Z,63.85
2019-05-07T05:02:47.506Z,63.03
2019-05-07T05:05:23.661Z,62.91
2019-05-07T05:07:56.527Z,63.49
2019-05-07T05:10:27.384Z,64.34
2019-05-07T05:12:56.461Z,64.06
2019-05-07T05:15:25.509Z,62.59
2019-05-07T05:17:54.562Z,61.38
2019-05-07T05:20:33.719Z,60.96
2019-05-07T05:23:33.994Z,60.84
2019-05-07T05:26:04.636Z,60.36
2019-05-07T05:28:33.755Z,58.52
2019-05-07T05:31:04.763Z,57.97
2019-05-07T05:33:36.757Z,59.39
2019-05-07T05:36:05.832Z,59.67
2019-05-07T05:38:35.244Z,60.38
2019-05-07T05:41:04.750Z,58.91
2019-05-07T05:43:46.891Z,59.68
2019-05-07T05:46:16.177Z,57.44
2019-05-07T05:48:48.293Z,57.73
2019-05-07T05:51:26.791Z,58.55
2019-05-07T05:54:14.791Z,57.92
2019-05-07T05:56:54.485Z,58.29
2019-05-07T05:59:55.589Z,58.12
2019-05-07T06:02:34.299Z,57.17
2019-05-07T06:05:22.349Z,56.83
2019-05-07T06:07:59.116Z,54.39
2019-05-07T06:10:53.722Z,54.88
2019-05-07T06:13:34.937Z,56.88
2019-05-07T06:16:13.194Z,56.44
2019-05-07T06:18:57.908Z,55.84
2019-05-07T06:21:47.903Z,55.54
2019-05-07T06:24:22.515Z,53.69
2019-05-07T06:27:09.236Z,53.82
2019-05-07T06:29:39.354Z,53.59
2019-05-07T06:32:12.134Z,53.32
2019-05-07T06:34:44.651Z,52.78
2019-05-07T06:37:12.964Z,54.39
2019-05-07T06:40:13.284Z,53.50
2019-05-07T06:42:55.337Z,54.00
2019-05-07T06:45:35.311Z,54.51
2019-05-07T06:48:03.572Z,54.42
2019-05-07T06:50:35.718Z,53.12
2019-05-07T06:53:07.614Z,52.80
2019-05-07T06:55:49.017Z,53.78
2019-05-07T06:58:18.455Z,54.30
2019-05-07T07:01:12.104Z,54.20
2019-05-07T07:04:02.619Z,54.69
2019-05-07T07:06:52.360Z,54.94
2019-05-07T07:09:27.621Z,54.93
2019-05-07T07:12:02.024Z,54.85
2019-05-07T07:14:33.178Z,53.56
2019-05-07T07:17:03.695Z,52.69
2019-05-07T07:19:35.991Z,52.96
2019-05-07T07:22:03.990Z,53.02
2019-05-07T07:24:33.111Z,51.57
2019-05-07T07:27:02.474Z,48.90
2019-05-07T07:29:36.332Z,44.09
2019-05-07T07:32:07.878Z,46.09
2019-05-07T07:34:43.145Z,46.86
2019-05-07T07:37:22.933Z,46.74
2019-05-07T07:40:09.511Z,44.57
2019-05-07T07:42:39.420Z,45.99
2019-05-07T07:45:16.950Z,44.77
2019-05-07T07:47:46.508Z,45.96
2019-05-07T07:50:17.182Z,44.71
2019-05-07T07:52:46.363Z,42.14
2019-05-07T07:55:17.483Z,44.47
2019-05-07T07:57:52.440Z,42.67
2019-05-07T08:00:52.534Z,42.01
2019-05-07T08:03:26.134Z,40.63
2019-05-07T08:05:54.623Z,44.42
2019-05-07T08:08:26.668Z,40.99
2019-05-07T08:10:55.851Z,43.57
2019-05-07T08:13:28.693Z,42.68
2019-05-07T08:16:02.909Z,42.08
2019-05-07T08:18:36.079Z,42.51
2019-05-07T08:21:07.998Z,39.34
2019-05-07T08:23:37.219Z,39.88
2019-05-07T08:26:06.298Z,40.58
2019-05-07T08:28:36.104Z,40.32
2019-05-07T08:31:27.323Z,37.98
2019-05-07T08:34:03.083Z,38.75
2019-05-07T08:36:33.199Z,38.62
2019-05-07T08:39:05.826Z,37.72
2019-05-07T08:41:35.875Z,38.71
2019-05-07T08:44:15.476Z,37.31
2019-05-07T08:47:02.797Z,36.09
2019-05-07T08:49:39.583Z,35.90
2019-05-07T08:52:04.820Z,37.49
2019-05-07T08:54:38.221Z,39.36
2019-05-07T08:57:08.995Z,37.67
2019-05-07T08:59:42.268Z,37.17
2019-05-07T09:02:13.024Z,36.29
2019-05-07T09:04:42.122Z,34.77
2019-05-07T09:07:13.031Z,35.54
2019-05-07T09:09:42.847Z,36.55
2019-05-07T09:12:12.652Z,35.49
2019-05-07T09:14:42.530Z,34.42
2019-05-07T09:17:14.491Z,35.03
2019-05-07T09:19:51.530Z,32.93
2019-05-07T09:22:18.493Z,33.63
2019-05-07T09:24:59.696Z,35.58
2019-05-07T09:27:48.896Z,35.39
2019-05-07T09:30:38.437Z,35.98
2019-05-07T09:33:16.908Z,37.16
2019-05-07T09:35:48.325Z,35.13
2019-05-07T09:38:25.342Z,35.94
2019-05-07T09:40:57.070Z,37.92
2019-05-07T09:43:26.298Z,36.32
2019-05-07T09:45:55.336Z,35.93
2019-05-07T09:48:26.107Z,37.29
2019-05-07T09:51:02.326Z,36.64
2019-05-07T09:53:32.884Z,36.22
2019-05-07T09:56:03.810Z,36.07
2019-05-07T09:58:39.936Z,37.67
2019-05-07T10:01:14.011Z,35.27
2019-05-07T10:03:43.607Z,38.84
2019-05-07T10:06:12.940Z,36.70
2019-05-07T10:08:47.456Z,34.42
2019-05-07T10:11:24.209Z,34.85
2019-05-07T10:14:01.491Z,34.69
2019-05-07T10:16:55.774Z,35.73
2019-05-07T10:19:25.113Z,35.52
2019-05-07T10:21:56.636Z,34.07
2019-05-07T10:24:26.110Z,35.22
2019-05-07T10:26:58.336Z,35.00
2019-05-07T10:29:32.254Z,36.82
2019-05-07T10:32:03.075Z,36.70
2019-05-07T10:34:32.175Z,36.35
2019-05-07T10:37:02.696Z,36.33
2019-05-07T10:39:32.586Z,36.24
2019-05-07T10:42:03.598Z,34.96
2019-05-07T10:44:43.177Z,35.16
2019-05-07T10:47:49.254Z,34.57
2019-05-07T10:50:35.557Z,34.76
2019-05-07T10:52:58.987Z,33.88
2019-05-07T10:55:32.739Z,34.23
2019-05-07T10:58:09.462Z,33.65
2019-05-07T11:00:39.120Z,34.79
2019-05-07T11:03:10.084Z,32.48
2019-05-07T11:05:39.258Z,32.43
2019-05-07T11:08:10.208Z,32.55
2019-05-07T11:10:39.386Z,34.56
2019-05-07T11:13:09.857Z,34.20
2019-05-07T11:15:39.755Z,35.31
2019-05-07T11:18:17.355Z,31.85
2019-05-07T11:20:50.328Z,35.57
2019-05-07T11:23:17.819Z,32.91
2019-05-07T11:25:52.632Z,34.97
2019-05-07T11:28:23.673Z,33.19
2019-05-07T11:30:58.604Z,33.30
2019-05-07T11:33:37.412Z,33.22
2019-05-07T11:36:16.993Z,32.31
2019-05-07T11:38:46.106Z,33.62
2019-05-07T11:41:15.226Z,32.13
2019-05-07T11:44:13.981Z,31.98
2019-05-07T11:47:12.317Z,30.78
2019-05-07T11:50:00.177Z,32.97
2019-05-07T11:52:38.463Z,30.85
2019-05-07T11:55:13.706Z,30.43
2019-05-07T11:57:45.770Z,29.94
2019-05-07T12:00:35.683Z,30.11
2019-05-07T12:03:05.022Z,28.85
2019-05-07T12:05:37.746Z,28.84
2019-05-07T12:08:37.566Z,29.61
2019-05-07T12:11:02.354Z,32.39
2019-05-07T12:13:32.286Z,33.36
2019-05-07T12:16:03.038Z,32.25
2019-05-07T12:18:36.229Z,33.77
2019-05-07T12:21:18.305Z,32.92
2019-05-07T12:23:38.216Z,33.64
2019-05-07T12:26:07.740Z,31.50
2019-05-07T12:28:37.308Z,31.61
2019-05-07T12:31:41.678Z,31.18
2019-05-07T12:34:17.733Z,29.66
2019-05-07T12:36:52.443Z,32.61
2019-05-07T12:39:24.767Z,35.58
2019-05-07T12:41:59.510Z,34.95
2019-05-07T12:44:32.082Z,33.62
2019-05-07T12:47:02.323Z,32.40
2019-05-07T12:49:32.561Z,29.32
2019-05-07T12:52:09.640Z,30.14
2019-05-07T12:54:57.782Z,31.73
2019-05-07T12:57:30.068Z,31.79
2019-05-07T13:00:18.133Z,32.19
2019-05-07T13:03:06.539Z,29.07
2019-05-07T13:05:37.250Z,31.60
2019-05-07T13:08:12.340Z,30.02
2019-05-07T13:10:37.417Z,31.58
2019-05-07T13:13:06.508Z,31.39
2019-05-07T13:15:35.911Z,30.76
2019-05-07T13:18:05.414Z,32.77
2019-05-07T13:20:37.485Z,34.16
2019-05-07T13:23:06.569Z,32.70
2019-05-07T13:25:37.126Z,30.91
2019-05-07T13:28:07.121Z,29.09
2019-05-07T13:30:44.276Z,30.21
2019-05-07T13:33:14.084Z,31.07
2019-05-07T13:35:44.404Z,31.38
2019-05-07T13:38:32.326Z,30.12
2019-05-07T13:41:24.187Z,29.89
2019-05-07T13:44:18.442Z,30.30
2019-05-07T13:46:52.875Z,27.57
2019-05-07T13:49:22.052Z,26.74
2019-05-07T13:52:03.397Z,26.87
2019-05-07T13:54:28.484Z,28.37
2019-05-07T13:56:57.635Z,27.13
2019-05-07T13:59:40.012Z,30.01
2019-05-07T14:02:15.659Z,30.54
2019-05-07T14:04:44.805Z,30.85
2019-05-07T14:07:14.017Z,28.64
2019-05-07T14:12:27.407Z,31.66
2019-05-07T14:15:02.022Z,32.06
2019-05-07T14:17:32.075Z,33.47
2019-05-07T14:20:04.965Z,33.20
2019-05-07T14:22:32.675Z,31.97
2019-05-07T14:25:09.246Z,30.82
2019-05-07T14:27:38.429Z,29.29
2019-05-07T14:30:08.198Z,27.74
2019-05-07T14:32:46.150Z,30.66
2019-05-07T14:35:26.881Z,27.31
2019-05-07T14:38:03.324Z,28.18
2019-05-07T14:40:35.543Z,28.92
2019-05-07T14:43:09.747Z,27.17
2019-05-07T14:45:42.086Z,30.04
2019-05-07T14:48:12.191Z,30.45
2019-05-07T14:50:44.935Z,30.27
2019-05-07T14:53:14.875Z,31.53
2019-05-07T14:55:52.055Z,29.35
2019-05-07T14:58:21.116Z,28.61
2019-05-07T15:00:51.873Z,26.63
2019-05-07T15:03:23.952Z,28.04
2019-05-07T15:06:02.470Z,27.80
2019-05-07T15:08:35.270Z,29.08
2019-05-07T15:11:08.226Z,31.63
2019-05-07T15:13:37.428Z,31.38
2019-05-07T15:16:06.863Z,31.20
2019-05-07T15:19:04.146Z,30.43
2019-05-07T15:21:37.149Z,29.75
2019-05-07T15:24:06.201Z,28.08
2019-05-07T15:26:38.790Z,31.15
2019-05-07T15:29:14.296Z,28.89
2019-05-07T15:32:17.354Z,28.72
2019-05-07T15:34:46.419Z,28.15
2019-05-07T15:37:17.010Z,28.54
2019-05-07T15:39:50.340Z,31.27
2019-05-07T15:42:17.163Z,28.62
2019-05-07T15:44:48.127Z,28.76
2019-05-07T15:47:22.671Z,28.31
2019-05-07T15:49:55.352Z,30.77
2019-05-07T15:52:58.115Z,28.06
2019-05-07T15:55:22.493Z,29.19
2019-05-07T15:57:52.162Z,29.77
2019-05-07T16:00:23.530Z,29.31
2019-05-07T16:03:02.060Z,29.05
2019-05-07T16:05:31.735Z,29.18
2019-05-07T16:08:12.362Z,29.21
2019-05-07T16:10:42.606Z,29.85
2019-05-07T16:13:13.992Z,30.48
2019-05-07T16:15:44.843Z,30.17
2019-05-07T16:18:17.807Z,30.23
2019-05-07T16:20:46.919Z,32.34
2019-05-07T16:23:19.012Z,30.16
2019-05-07T16:25:52.784Z,29.67
2019-05-07T16:28:22.029Z,29.86
2019-05-07T16:30:55.128Z,29.69
2019-05-07T16:33:26.539Z,29.76
2019-05-07T16:35:55.668Z,29.69
2019-05-07T16:38:24.800Z,29.74
2019-05-07T16:40:54.981Z,29.65
2019-05-07T16:43:31.900Z,29.78
2019-05-07T16:46:02.454Z,31.89
2019-05-07T16:48:38.298Z,32.83
2019-05-07T16:51:07.379Z,33.64
2019-05-07T16:53:42.248Z,34.21
2019-05-07T16:56:12.415Z,34.85
2019-05-07T16:58:52.286Z,34.34
2019-05-07T17:01:22.265Z,35.07
2019-05-07T17:03:55.957Z,34.12
2019-05-07T17:06:31.907Z,34.91
2019-05-07T17:09:08.879Z,35.14
2019-05-07T17:11:39.437Z,35.83
2019-05-07T17:14:10.278Z,35.50
2019-05-07T17:16:42.376Z,35.77
2019-05-07T17:19:15.499Z,35.73
2019-05-07T17:21:44.683Z,36.08
2019-05-07T17:24:13.773Z,35.55
2019-05-07T17:26:42.846Z,35.91
2019-05-07T17:29:12.159Z,36.04
2019-05-07T17:31:42.405Z,36.36
2019-05-07T17:34:16.281Z,36.81
2019-05-07T17:36:49.125Z,36.97
2019-05-07T17:39:22.527Z,37.32
2019-05-07T17:41:53.073Z,37.20
2019-05-07T17:44:23.247Z,37.50
2019-05-07T17:46:53.518Z,37.39
2019-05-07T17:49:22.600Z,37.37
2019-05-07T17:51:52.574Z,37.67
2019-05-07T17:54:22.529Z,37.80
2019-05-07T17:56:52.686Z,37.46
2019-05-07T17:59:23.298Z,37.90
2019-05-07T18:02:29.575Z,37.70
2019-05-07T18:05:06.201Z,37.65
2019-05-07T18:07:36.922Z,38.00
2019-05-07T18:10:06.569Z,38.24
2019-05-07T18:12:35.643Z,38.18
2019-05-07T18:15:09.442Z,38.35
2019-05-07T18:17:45.973Z,38.68
2019-05-07T18:20:18.140Z,39.18
2019-05-07T18:22:47.232Z,39.75
2019-05-07T18:25:17.439Z,40.10
2019-05-07T18:27:46.527Z,40.19
2019-05-07T18:30:16.816Z,40.57
2019-05-07T18:32:51.984Z,40.24
2019-05-07T18:35:27.837Z,40.29
2019-05-07T18:38:04.433Z,40.21
2019-05-07T18:40:33.562Z,40.06
2019-05-07T18:43:03.124Z,40.23
2019-05-07T18:45:32.462Z,40.13
2019-05-07T18:48:02.403Z,39.95
2019-05-07T18:50:33.839Z,40.12
2019-05-07T18:53:02.978Z,39.95
2019-05-07T18:55:33.097Z,39.70
2019-05-07T18:58:02.897Z,39.91
2019-05-07T19:00:38.559Z,40.07
2019-05-07T19:03:10.844Z,40.47
2019-05-07T19:05:42.406Z,41.07
2019-05-07T19:08:13.545Z,41.14
2019-05-07T19:10:44.135Z,40.64
2019-05-07T19:13:17.706Z,40.20
2019-05-07T19:15:48.263Z,40.31
2019-05-07T19:18:22.606Z,40.26
2019-05-07T19:20:52.990Z,40.13
2019-05-07T19:23:22.456Z,39.93
2019-05-07T19:25:53.045Z,40.14
2019-05-07T19:28:26.761Z,40.64
2019-05-07T19:30:55.838Z,40.54
2019-05-07T19:33:27.150Z,40.47
2019-05-07T19:35:59.533Z,40.07
2019-05-07T19:38:32.345Z,40.12
2019-05-07T19:41:02.897Z,39.97
2019-05-07T19:43:36.340Z,40.32
2019-05-07T19:46:05.681Z,40.12
2019-05-07T19:48:35.308Z,40.55
2019-05-07T19:51:04.444Z,40.17
2019-05-07T19:53:33.526Z,39.87
2019-05-07T19:56:05.800Z,39.92
2019-05-07T19:58:36.068Z,40.77
2019-05-07T20:01:06.882Z,41.11
2019-05-07T20:03:36.031Z,41.84
2019-05-07T20:06:09.660Z,39.82
2019-05-07T20:08:38.766Z,40.03
2019-05-07T20:11:31.996Z,40.23
2019-05-07T20:14:02.076Z,40.29
2019-05-07T20:16:33.041Z,40.90
2019-05-07T20:19:02.441Z,41.10
2019-05-07T20:21:32.704Z,41.17
2019-05-07T20:24:06.950Z,40.88
2019-05-07T20:26:43.817Z,41.00
2019-05-07T20:29:13.376Z,41.00
2019-05-07T20:31:42.567Z,41.55
2019-05-07T20:34:15.463Z,42.16
2019-05-07T20:36:44.627Z,42.53
2019-05-07T20:39:14.018Z,42.69
2019-05-07T20:41:44.404Z,42.76
2019-05-07T20:44:13.842Z,42.18
2019-05-07T20:46:42.909Z,42.31
2019-05-07T20:49:13.440Z,42.47
2019-05-07T20:51:45.023Z,42.55
2019-05-07T20:54:48.136Z,42.62
2019-05-07T20:57:23.186Z,42.82
2019-05-07T20:59:53.744Z,42.75
2019-05-07T21:02:23.298Z,42.40
2019-05-07T21:04:52.368Z,42.32
2019-05-07T21:07:22.415Z,42.29
2019-05-07T21:09:53.029Z,42.29
2019-05-07T21:12:25.338Z,42.87
2019-05-07T21:14:57.582Z,42.55
2019-05-07T21:17:32.200Z,42.05
2019-05-07T21:20:04.576Z,42.01
2019-05-07T21:22:39.634Z,44.42
2019-05-07T21:25:08.778Z,43.34
2019-05-07T21:27:37.834Z,43.52
2019-05-07T21:30:07.348Z,43.71
2019-05-07T21:32:39.291Z,43.74
2019-05-07T21:35:11.043Z,44.13
2019-05-07T21:37:41.795Z,43.91
2019-05-07T21:40:13.034Z,43.80
2019-05-07T21:42:42.664Z,44.17
2019-05-07T21:45:15.676Z,44.26
2019-05-07T21:47:44.754Z,43.93
2019-05-07T21:50:14.646Z,44.12
2019-05-07T21:52:46.524Z,44.25
2019-05-07T21:55:28.601Z,44.52
2019-05-07T21:58:25.447Z,44.41
2019-05-07T22:01:23.540Z,45.69
2019-05-07T22:03:56.996Z,46.10
2019-05-07T22:06:26.060Z,46.36
2019-05-07T22:08:55.248Z,46.73
2019-05-07T22:11:34.871Z,46.38
2019-05-07T22:14:06.730Z,46.33
2019-05-07T22:16:38.712Z,46.33
2019-05-07T22:19:12.849Z,45.74
2019-05-07T22:21:43.431Z,45.72
2019-05-07T22:24:17.778Z,45.77
2019-05-07T22:26:48.533Z,46.82
2019-05-07T22:29:17.540Z,47.19
2019-05-07T22:32:04.401Z,47.62
2019-05-07T22:34:55.652Z,48.51
2019-05-07T22:37:24.697Z,48.11
2019-05-07T22:39:56.971Z,48.73
2019-05-07T22:42:32.684Z,50.89
2019-05-07T22:45:03.855Z,51.86
2019-05-07T22:47:34.145Z,53.41
2019-05-07T22:50:03.973Z,54.67
2019-05-07T22:52:34.147Z,53.99
2019-05-07T22:55:04.621Z,55.72
2019-05-07T22:57:55.768Z,56.07
2019-05-07T23:00:47.550Z,55.23
2019-05-07T23:03:22.896Z,56.82
2019-05-07T23:05:56.695Z,56.87
2019-05-07T23:08:42.362Z,56.35
2019-05-07T23:11:12.257Z,57.00
2019-05-07T23:13:42.971Z,57.27
2019-05-07T23:16:13.724Z,57.45
2019-05-07T23:18:43.163Z,57.44
2019-05-07T23:21:12.378Z,57.70
2019-05-07T23:23:44.158Z,57.32
2019-05-07T23:26:14.873Z,57.24
2019-05-07T23:28:45.243Z,57.56
2019-05-07T23:31:14.319Z,58.84
2019-05-07T23:33:43.361Z,58.75
2019-05-07T23:36:16.994Z,58.83
2019-05-07T23:38:52.091Z,59.88
2019-05-07T23:41:36.991Z,59.34
2019-05-07T23:44:23.238Z,59.19
2019-05-07T23:46:52.319Z,59.95
2019-05-07T23:49:23.216Z,60.63
2019-05-07T23:51:53.094Z,60.92
2019-05-07T23:54:23.132Z,61.25
2019-05-07T23:57:05.863Z,60.97
2019-05-07T23:59:26.561Z,60.95
